Time;durP1;ratioP1;P1;durP2;ratioP2;P2;SDS_P1;SDS_P2;PMS_P1;PMS_P2;Temp;Humidity;BMP_temperature;BMP_pressure;BME280_temperature;BME280_humidity;BME280_pressure;Samples;Min_cycle;Max_cycle;Signal;HPM_P1;HPM_P2
2021/11/14 00:01:00;;;;;;;8.38;7.88;;;13.50;79.70;;;;;;5049679;28;20037;-81
2021/11/14 00:03:26;;;;;;;7.82;7.45;;;13.50;79.70;;;;;;5033647;28;20028;-81
2021/11/14 00:05:53;;;;;;;8.15;7.75;;;13.40;79.60;;;;;;5047539;28;20033;-81
2021/11/14 00:08:19;;;;;;;8.20;7.80;;;13.40;79.60;;;;;;5048787;28;20029;-81
2021/11/14 00:10:48;;;;;;;9.57;9.07;;;13.40;79.60;;;;;;5049151;28;20110;-81
2021/11/14 00:13:14;;;;;;;9.30;8.85;;;13.40;79.70;;;;;;5050347;28;20024;-81
2021/11/14 00:15:40;;;;;;;8.93;8.52;;;13.50;79.80;;;;;;5048433;28;20056;-81
2021/11/14 00:18:07;;;;;;;9.48;8.98;;;13.40;79.70;;;;;;5051041;28;20043;-81
2021/11/14 00:20:33;;;;;;;8.80;8.30;;;13.40;79.70;;;;;;5048835;28;20037;-81
2021/11/14 00:22:59;;;;;;;8.88;8.48;;;13.40;79.70;;;;;;5048404;28;20462;-81
2021/11/14 00:25:25;;;;;;;8.75;8.35;;;13.40;79.80;;;;;;5049353;28;20025;-81
2021/11/14 00:27:52;;;;;;;8.00;7.60;;;13.40;79.80;;;;;;5054097;28;20033;-81
2021/11/14 00:30:18;;;;;;;8.90;8.50;;;13.40;79.80;;;;;;5054268;28;20044;-81
2021/11/14 00:32:44;;;;;;;7.97;7.57;;;13.40;79.80;;;;;;5053026;28;20033;-81
2021/11/14 00:35:11;;;;;;;8.30;7.90;;;13.40;79.80;;;;;;5052911;28;20044;-81
2021/11/14 00:37:37;;;;;;;8.80;8.20;;;13.40;79.80;;;;;;5052447;28;20422;-81
2021/11/14 00:40:05;;;;;;;8.52;8.13;;;13.40;79.80;;;;;;5052979;28;20025;-81
2021/11/14 00:42:31;;;;;;;10.63;7.45;;;13.40;79.80;;;;;;5053428;28;20383;-81
2021/11/14 00:44:57;;;;;;;18.25;8.15;;;13.40;79.80;;;;;;5055090;28;20029;-81
2021/11/14 00:47:23;;;;;;;7.88;7.47;;;13.40;79.80;;;;;;5052141;28;20064;-81
2021/11/14 00:49:49;;;;;;;8.05;7.65;;;13.40;79.80;;;;;;5052589;28;20033;-81
2021/11/14 00:52:15;;;;;;;7.97;7.57;;;13.40;79.80;;;;;;5052344;28;20029;-81
2021/11/14 00:54:41;;;;;;;8.40;8.00;;;13.40;79.80;;;;;;5035098;28;20045;-81
2021/11/14 00:57:08;;;;;;;8.85;8.43;;;13.30;79.80;;;;;;5054011;28;20029;-81
2021/11/14 00:59:34;;;;;;;8.00;7.60;;;13.40;79.80;;;;;;5050678;28;20060;-81
2021/11/14 01:02:00;;;;;;;9.32;8.82;;;13.30;79.80;;;;;;5051474;28;20100;-81
2021/11/14 01:04:26;;;;;;;8.07;7.68;;;13.30;79.80;;;;;;5053249;28;20033;-81
2021/11/14 01:06:52;;;;;;;8.98;8.57;;;13.30;79.80;;;;;;5051238;28;20032;-81
2021/11/14 01:09:18;;;;;;;9.75;9.27;;;13.30;79.90;;;;;;5053994;28;20052;-81
2021/11/14 01:11:44;;;;;;;8.82;8.32;;;13.30;79.90;;;;;;5052379;28;20033;-81
2021/11/14 01:14:10;;;;;;;8.90;8.50;;;13.30;79.90;;;;;;5052191;28;20496;-81
2021/11/14 01:16:37;;;;;;;8.88;8.48;;;13.20;79.90;;;;;;5052753;28;20025;-81
2021/11/14 01:19:03;;;;;;;9.18;8.77;;;13.20;79.90;;;;;;5052229;28;20017;-81
2021/11/14 01:21:29;;;;;;;9.30;8.82;;;13.20;79.90;;;;;;5053803;28;20405;-81
2021/11/14 01:23:56;;;;;;;8.93;8.52;;;13.30;79.90;;;;;;5052915;28;20474;-81
2021/11/14 01:26:22;;;;;;;9.50;8.90;;;13.20;79.90;;;;;;5052066;28;20025;-81
2021/11/14 01:28:48;;;;;;;8.75;8.35;;;13.30;79.90;;;;;;5034602;28;20055;-81
2021/11/14 01:31:14;;;;;;;8.88;8.48;;;13.30;79.90;;;;;;5035904;28;20029;-81
2021/11/14 01:33:41;;;;;;;9.70;9.25;;;13.30;79.90;;;;;;5051688;28;20032;-81
2021/11/14 01:36:07;;;;;;;9.32;8.93;;;13.30;79.90;;;;;;5069409;28;20048;-81
2021/11/14 01:38:33;;;;;;;10.25;9.75;;;13.30;79.80;;;;;;5049204;28;20501;-81
2021/11/14 01:41:18;;;;;;;10.02;9.45;;;13.30;79.80;;;;;;5029748;28;20037;-81
2021/11/14 01:43:47;;;;;;;9.50;9.10;;;13.30;79.80;;;;;;5041428;28;20535;-81
2021/11/14 01:46:13;;;;;;;9.05;8.65;;;13.30;79.80;;;;;;5051372;28;20060;-81
2021/11/14 01:48:39;;;;;;;9.50;9.00;;;13.30;79.80;;;;;;5052600;28;20051;-81
2021/11/14 01:51:05;;;;;;;10.57;9.88;;;13.30;79.80;;;;;;5052881;28;20032;-81
2021/11/14 01:53:34;;;;;;;10.05;9.55;;;13.30;79.80;;;;;;5051584;28;20488;-81
2021/11/14 01:56:01;;;;;;;10.00;9.50;;;13.30;79.80;;;;;;5051449;28;20040;-81
2021/11/14 01:58:28;;;;;;;10.13;9.57;;;13.30;79.80;;;;;;5051392;28;20031;-81
2021/11/14 02:01:09;;;;;;;9.07;8.68;;;13.30;79.90;;;;;;5051165;28;20034;-81
2021/11/14 02:03:35;;;;;;;9.57;9.07;;;13.30;79.90;;;;;;5051323;28;20037;-81
2021/11/14 02:06:04;;;;;;;9.82;8.95;;;13.30;79.90;;;;;;5052679;28;20091;-81
2021/11/14 02:08:30;;;;;;;9.32;8.93;;;13.20;79.90;;;;;;5051256;28;20033;-81
2021/11/14 02:10:56;;;;;;;9.68;9.07;;;13.30;79.90;;;;;;5052160;28;20021;-81
2021/11/14 02:13:22;;;;;;;9.85;9.38;;;13.20;79.80;;;;;;5051979;28;20024;-81
2021/11/14 02:15:48;;;;;;;10.00;9.40;;;13.20;79.80;;;;;;5050644;28;20025;-81
2021/11/14 02:18:15;;;;;;;9.43;8.73;;;13.20;79.90;;;;;;5052548;28;20060;-81
2021/11/14 02:20:43;;;;;;;8.75;8.35;;;13.20;79.90;;;;;;5049233;28;20025;-81
2021/11/14 02:23:11;;;;;;;30.20;9.73;;;13.20;79.90;;;;;;5050286;28;20501;-81
2021/11/14 02:25:37;;;;;;;9.45;9.05;;;13.20;79.90;;;;;;5050798;28;20036;-81
2021/11/14 02:28:04;;;;;;;8.75;8.35;;;13.20;79.80;;;;;;5050988;28;20041;-81
2021/11/14 02:30:30;;;;;;;9.40;9.00;;;13.20;79.90;;;;;;5051426;28;20029;-81
2021/11/14 02:32:56;;;;;;;9.45;8.98;;;13.20;79.90;;;;;;5051282;28;20031;-81
2021/11/14 02:35:22;;;;;;;9.63;9.13;;;13.20;80.70;;;;;;5050606;28;20045;-81
2021/11/14 02:37:49;;;;;;;9.57;9.07;;;13.20;79.90;;;;;;5051684;28;20025;-81
2021/11/14 02:40:15;;;;;;;10.35;9.85;;;13.20;79.90;;;;;;5050851;28;20036;-81
2021/11/14 02:42:43;;;;;;;9.65;8.98;;;13.20;79.90;;;;;;5051661;28;20478;-81
2021/11/14 02:45:09;;;;;;;10.27;9.77;;;13.20;80.00;;;;;;5051625;28;20025;-81
2021/11/14 02:47:35;;;;;;;9.40;8.90;;;13.20;79.90;;;;;;5049885;28;20044;-81
2021/11/14 02:50:06;;;;;;;10.60;9.93;;;13.20;79.90;;;;;;5050326;28;20025;-81
2021/11/14 02:52:32;;;;;;;10.60;10.00;;;13.10;79.90;;;;;;5051459;28;20367;-81
2021/11/14 02:54:58;;;;;;;10.32;9.82;;;13.10;79.90;;;;;;5051042;28;20041;-81
2021/11/14 02:57:24;;;;;;;9.43;9.02;;;13.10;79.90;;;;;;5051859;28;20029;-81
2021/11/14 02:59:50;;;;;;;11.00;10.50;;;13.10;79.90;;;;;;5050185;28;20208;-81
2021/11/14 03:02:16;;;;;;;9.88;9.38;;;13.10;79.90;;;;;;5049718;28;20033;-81
2021/11/14 03:04:43;;;;;;;11.05;10.45;;;13.10;79.90;;;;;;5046434;28;20037;-81
2021/11/14 03:07:10;;;;;;;10.13;9.63;;;13.10;79.90;;;;;;5045320;28;20025;-81
2021/11/14 03:09:36;;;;;;;10.18;9.68;;;13.10;79.90;;;;;;5050738;28;20386;-81
2021/11/14 03:12:04;;;;;;;11.00;10.50;;;13.10;79.90;;;;;;5047616;28;20037;-81
2021/11/14 03:14:30;;;;;;;10.68;10.18;;;13.10;79.90;;;;;;5049094;28;20032;-81
2021/11/14 03:16:56;;;;;;;10.63;10.13;;;13.10;79.90;;;;;;5045534;28;20505;-81
2021/11/14 03:19:22;;;;;;;9.90;9.40;;;13.10;79.90;;;;;;5021348;28;20036;-81
2021/11/14 03:21:48;;;;;;;10.90;10.40;;;13.00;79.80;;;;;;5049210;28;20500;-81
2021/11/14 03:24:15;;;;;;;9.40;8.90;;;13.00;79.80;;;;;;5046766;28;20033;-81
2021/11/14 03:26:42;;;;;;;10.63;10.13;;;13.00;79.80;;;;;;5044655;28;20033;-81
2021/11/14 03:29:08;;;;;;;11.73;10.80;;;13.00;79.80;;;;;;5049037;28;20037;-81
2021/11/14 03:31:34;;;;;;;22.88;12.40;;;13.00;79.80;;;;;;5047063;28;20047;-81
2021/11/14 03:34:00;;;;;;;11.18;10.68;;;13.00;79.80;;;;;;5016972;28;20464;-81
2021/11/14 03:36:27;;;;;;;9.10;8.68;;;13.00;79.70;;;;;;5022878;28;20045;-81
2021/11/14 03:38:54;;;;;;;9.88;9.38;;;13.00;79.70;;;;;;5048775;28;20029;-81
2021/11/14 03:41:23;;;;;;;8.30;7.90;;;13.00;79.70;;;;;;5049465;28;20391;-81
2021/11/14 03:43:49;;;;;;;8.70;8.30;;;13.10;79.80;;;;;;5050611;28;20025;-81
2021/11/14 03:46:15;;;;;;;7.95;7.55;;;13.00;79.70;;;;;;5049097;28;20025;-81
2021/11/14 03:48:43;;;;;;;7.95;7.55;;;13.00;79.70;;;;;;5032092;28;20072;-81
2021/11/14 03:51:10;;;;;;;7.55;7.25;;;13.00;79.70;;;;;;5051134;28;20025;-81
2021/11/14 03:53:36;;;;;;;7.28;6.97;;;13.00;79.70;;;;;;5049406;28;20025;-81
2021/11/14 03:56:03;;;;;;;7.53;7.07;;;13.00;79.70;;;;;;5049400;28;20025;-81
2021/11/14 03:58:29;;;;;;;7.45;7.05;;;13.00;79.70;;;;;;5049454;28;20040;-81
2021/11/14 04:00:57;;;;;;;7.40;7.10;;;13.00;79.70;;;;;;5048086;28;20025;-81
2021/11/14 04:03:23;;;;;;;7.57;7.18;;;13.00;79.70;;;;;;5052015;28;20036;-81
2021/11/14 04:05:50;;;;;;;8.63;8.05;;;13.00;79.70;;;;;;5049462;28;20029;-81
2021/11/14 04:08:21;;;;;;;7.53;7.13;;;13.00;79.70;;;;;;5050304;28;20025;-81
2021/11/14 04:10:49;;;;;;;6.90;6.60;;;13.00;79.70;;;;;;5049398;28;20466;-81
2021/11/14 04:13:15;;;;;;;8.10;7.70;;;13.00;79.60;;;;;;5047766;28;20025;-81
2021/11/14 04:15:41;;;;;;;7.90;7.50;;;13.00;79.60;;;;;;5048311;28;20037;-81
2021/11/14 04:18:07;;;;;;;7.90;7.50;;;13.00;79.60;;;;;;5050898;28;20032;-81
2021/11/14 04:20:35;;;;;;;7.22;6.93;;;13.00;79.60;;;;;;5049043;28;20508;-81
2021/11/14 04:23:02;;;;;;;7.68;7.35;;;13.00;79.60;;;;;;5049981;28;20024;-81
2021/11/14 04:25:28;;;;;;;7.80;7.40;;;13.00;79.50;;;;;;5049404;28;20032;-81
2021/11/14 04:27:55;;;;;;;9.18;8.57;;;13.00;79.50;;;;;;5048092;28;20033;-81
2021/11/14 04:30:21;;;;;;;7.97;7.57;;;13.00;79.50;;;;;;5050301;28;20029;-81
2021/11/14 04:32:47;;;;;;;8.45;7.88;;;13.00;79.60;;;;;;5050111;28;20033;-81
2021/11/14 04:35:13;;;;;;;7.65;7.25;;;13.00;79.50;;;;;;5048749;28;20033;-81
2021/11/14 04:37:39;;;;;;;7.97;7.57;;;13.00;79.50;;;;;;5049953;28;20036;-81
2021/11/14 04:40:07;;;;;;;8.30;7.90;;;13.00;79.60;;;;;;5048613;28;20497;-81
2021/11/14 04:42:33;;;;;;;8.30;7.90;;;13.00;79.50;;;;;;5049597;28;20040;-81
2021/11/14 04:44:59;;;;;;;7.85;7.45;;;13.00;79.50;;;;;;5049570;28;20493;-81
2021/11/14 04:47:25;;;;;;;8.07;7.68;;;13.00;79.50;;;;;;5028229;28;20506;-81
2021/11/14 04:49:52;;;;;;;7.63;7.25;;;13.00;79.50;;;;;;5048784;28;20485;-81
2021/11/14 04:52:18;;;;;;;7.93;7.20;;;13.00;79.50;;;;;;5047232;28;20040;-81
2021/11/14 04:54:44;;;;;;;7.82;7.43;;;13.00;79.50;;;;;;5048725;28;20037;-81
2021/11/14 04:57:10;;;;;;;7.65;7.25;;;12.90;79.40;;;;;;5050521;28;20493;-81
2021/11/14 04:59:36;;;;;;;7.50;7.10;;;12.90;79.40;;;;;;5029826;28;20040;-81
2021/11/14 05:02:02;;;;;;;7.72;7.25;;;12.90;79.40;;;;;;5049572;28;20029;-81
2021/11/14 05:04:28;;;;;;;8.48;7.80;;;12.90;79.40;;;;;;5049718;28;20397;-80
2021/11/14 05:06:55;;;;;;;10.07;8.35;;;12.90;79.40;;;;;;5049114;28;20025;-81
2021/11/14 05:09:21;;;;;;;7.80;7.40;;;12.90;79.40;;;;;;5050518;28;20048;-81
2021/11/14 05:11:47;;;;;;;7.53;7.13;;;12.90;80.20;;;;;;5048295;28;20036;-80
2021/11/14 05:14:13;;;;;;;8.43;7.95;;;12.90;79.40;;;;;;5051686;28;20032;-81
2021/11/14 05:16:39;;;;;;;7.30;7.00;;;12.90;79.40;;;;;;5051741;28;20500;-81
2021/11/14 05:19:05;;;;;;;8.05;7.55;;;12.90;79.40;;;;;;5053155;28;20055;-81
2021/11/14 05:21:31;;;;;;;7.50;7.10;;;12.90;79.40;;;;;;5054122;28;20029;-81
2021/11/14 05:23:57;;;;;;;7.25;6.95;;;12.90;79.30;;;;;;5054324;28;20040;-81
2021/11/14 05:26:23;;;;;;;7.15;6.85;;;12.90;79.30;;;;;;5051859;28;20504;-81
2021/11/14 05:28:49;;;;;;;7.70;7.30;;;12.90;79.30;;;;;;5052947;28;20044;-81
2021/11/14 05:31:16;;;;;;;7.22;6.93;;;12.90;80.10;;;;;;5050050;28;20029;-81
2021/11/14 05:33:42;;;;;;;7.32;7.03;;;12.90;79.30;;;;;;5052803;28;20033;-81
2021/11/14 05:36:08;;;;;;;8.50;8.10;;;12.90;79.30;;;;;;5053598;28;20056;-81
2021/11/14 05:38:34;;;;;;;7.65;7.30;;;12.90;79.20;;;;;;5051701;28;20033;-81
2021/11/14 05:41:00;;;;;;;7.85;7.47;;;12.90;79.20;;;;;;5052503;28;20215;-80
2021/11/14 05:43:26;;;;;;;8.07;7.68;;;12.90;79.20;;;;;;5051824;28;20035;-81
2021/11/14 05:45:52;;;;;;;8.45;8.05;;;12.90;79.20;;;;;;5050588;28;20032;-81
2021/11/14 05:48:18;;;;;;;8.00;7.60;;;12.90;80.00;;;;;;5054415;28;20044;-81
2021/11/14 05:50:44;;;;;;;8.88;8.48;;;12.90;79.20;;;;;;5052482;28;20032;-81
2021/11/14 05:53:10;;;;;;;8.70;8.30;;;12.90;79.20;;;;;;5052507;28;20056;-81
2021/11/14 05:55:36;;;;;;;8.77;8.38;;;12.90;79.20;;;;;;5051162;28;20033;-81
2021/11/14 05:58:07;;;;;;;9.45;8.70;;;12.90;80.00;;;;;;5052466;28;20052;-81
2021/11/14 06:03:35;;;;;;;8.73;8.32;;;12.90;79.10;;;;;;5056599;28;20394;-81
2021/11/14 06:06:01;;;;;;;8.40;8.00;;;12.90;79.10;;;;;;5052959;28;20109;-81
2021/11/14 06:08:27;;;;;;;8.70;8.30;;;12.80;79.10;;;;;;5051186;28;20032;-81
2021/11/14 06:10:54;;;;;;;9.23;8.82;;;12.90;79.10;;;;;;5051550;28;20397;-81
2021/11/14 06:13:21;;;;;;;9.35;8.95;;;12.80;79.00;;;;;;5051514;28;20033;-81
2021/11/14 06:15:47;;;;;;;9.30;8.70;;;12.80;79.00;;;;;;5049811;28;20044;-81
2021/11/14 06:18:14;;;;;;;8.90;8.40;;;12.90;79.10;;;;;;5035681;28;20025;-81
2021/11/14 06:20:40;;;;;;;8.30;7.90;;;12.80;79.00;;;;;;5051201;28;20041;-81
2021/11/14 06:23:06;;;;;;;8.90;8.50;;;12.80;79.00;;;;;;5050708;28;20025;-81
2021/11/14 06:25:33;;;;;;;8.88;8.48;;;12.80;79.10;;;;;;5050321;28;20025;-81
2021/11/14 06:28:00;;;;;;;8.43;8.02;;;12.80;79.10;;;;;;5051939;28;20033;-81
2021/11/14 06:30:26;;;;;;;7.97;7.50;;;12.80;79.10;;;;;;5034597;28;20048;-80
2021/11/14 06:32:52;;;;;;;8.25;7.85;;;12.80;79.10;;;;;;5051157;28;20064;-81
2021/11/14 06:35:18;;;;;;;9.40;8.80;;;12.80;79.10;;;;;;5050623;28;20048;-81
2021/11/14 06:37:44;;;;;;;8.25;7.85;;;12.80;79.10;;;;;;5050575;28;20045;-81
2021/11/14 06:40:11;;;;;;;8.73;8.32;;;12.80;79.10;;;;;;5051242;28;20028;-81
2021/11/14 06:42:37;;;;;;;8.57;8.07;;;12.70;79.00;;;;;;5051769;28;20037;-81
2021/11/14 06:45:04;;;;;;;8.40;8.00;;;12.70;79.10;;;;;;5033060;28;20517;-80
2021/11/14 06:47:30;;;;;;;8.18;7.40;;;12.80;79.20;;;;;;5050428;28;20044;-81
2021/11/14 06:49:56;;;;;;;7.97;7.38;;;12.70;79.10;;;;;;5049962;28;20524;-81
2021/11/14 06:52:22;;;;;;;8.80;8.30;;;12.80;79.20;;;;;;5051611;28;20191;-81
2021/11/14 06:54:49;;;;;;;8.38;7.97;;;12.70;79.10;;;;;;5050202;28;20031;-81
2021/11/14 06:57:16;;;;;;;8.13;7.72;;;12.70;79.00;;;;;;5052242;28;20486;-81
2021/11/14 06:59:42;;;;;;;7.28;6.97;;;12.70;79.00;;;;;;5051210;28;20032;-81
2021/11/14 07:02:08;;;;;;;8.60;7.88;;;12.70;79.00;;;;;;5049947;28;20044;-81
2021/11/14 07:04:34;;;;;;;8.75;8.23;;;12.70;79.00;;;;;;5051116;28;20029;-81
2021/11/14 07:07:01;;;;;;;9.23;8.73;;;12.70;79.00;;;;;;5050268;28;20021;-81
2021/11/14 07:09:27;;;;;;;7.97;7.55;;;12.70;79.00;;;;;;5050884;28;20040;-81
2021/11/14 07:11:56;;;;;;;7.90;7.50;;;12.70;79.00;;;;;;5049427;28;20029;-81
2021/11/14 07:14:23;;;;;;;19.30;8.32;;;12.70;79.00;;;;;;5050037;28;20524;-81
2021/11/14 07:16:49;;;;;;;8.68;8.18;;;12.70;79.00;;;;;;5032625;28;20059;-81
2021/11/14 07:19:15;;;;;;;8.55;8.10;;;12.70;79.00;;;;;;5050112;28;20036;-81
2021/11/14 07:21:42;;;;;;;8.00;7.60;;;12.70;79.00;;;;;;5049826;28;20021;-81
2021/11/14 07:24:08;;;;;;;7.95;7.55;;;12.70;79.00;;;;;;5051505;28;20355;-81
2021/11/14 07:26:34;;;;;;;9.20;8.60;;;12.70;79.00;;;;;;5050769;28;20025;-81
2021/11/14 07:29:00;;;;;;;8.52;8.02;;;12.70;78.90;;;;;;5048086;28;20036;-81
2021/11/14 07:31:26;;;;;;;8.23;7.82;;;12.70;78.90;;;;;;5050142;28;20029;-81
2021/11/14 07:33:52;;;;;;;7.90;7.50;;;12.70;78.90;;;;;;5050900;28;20025;-81
2021/11/14 07:36:18;;;;;;;8.48;8.07;;;12.70;78.90;;;;;;5050716;28;20064;-81
2021/11/14 07:38:44;;;;;;;8.55;8.15;;;12.70;78.90;;;;;;5050356;28;20036;-80
2021/11/14 07:41:11;;;;;;;8.40;8.00;;;12.70;78.90;;;;;;5049782;28;20390;-81
2021/11/14 07:43:37;;;;;;;8.07;7.68;;;12.70;78.90;;;;;;5049050;28;20045;-81
2021/11/14 07:46:03;;;;;;;7.95;7.55;;;12.70;78.90;;;;;;5050084;28;20044;-81
2021/11/14 07:48:29;;;;;;;8.10;7.70;;;12.70;78.80;;;;;;5051400;28;20025;-80
2021/11/14 07:50:57;;;;;;;8.15;7.75;;;12.70;78.80;;;;;;5050201;28;20029;-81
2021/11/14 07:53:23;;;;;;;8.27;7.88;;;12.70;78.80;;;;;;5049971;28;20052;-80
2021/11/14 07:55:50;;;;;;;8.52;8.13;;;12.70;78.80;;;;;;5049426;28;20247;-81
2021/11/14 07:58:16;;;;;;;8.55;8.15;;;12.70;78.80;;;;;;5049538;28;20033;-81
2021/11/14 08:00:42;;;;;;;9.23;8.77;;;12.70;78.80;;;;;;5048682;28;20047;-81
2021/11/14 08:03:10;;;;;;;8.63;8.23;;;12.70;78.70;;;;;;5051008;28;20033;-81
2021/11/14 08:05:38;;;;;;;8.98;8.57;;;12.70;78.70;;;;;;5049384;28;20025;-81
2021/11/14 08:08:04;;;;;;;8.88;8.48;;;12.80;78.80;;;;;;5047145;28;20036;-81
2021/11/14 08:10:32;;;;;;;8.77;8.38;;;12.80;78.80;;;;;;5033589;28;20056;-81
2021/11/14 08:13:00;;;;;;;9.05;8.57;;;12.70;78.70;;;;;;5049457;28;20040;-81
2021/11/14 08:15:26;;;;;;;8.35;7.85;;;12.80;78.80;;;;;;5051038;28;20044;-81
2021/11/14 08:17:52;;;;;;;8.82;8.43;;;12.80;78.70;;;;;;5048528;28;20032;-80
2021/11/14 08:20:18;;;;;;;8.32;7.93;;;12.80;78.70;;;;;;5048019;28;20044;-80
2021/11/14 08:22:45;;;;;;;8.63;8.23;;;12.80;78.70;;;;;;5065195;28;20070;-81
2021/11/14 08:25:11;;;;;;;8.70;8.30;;;12.80;78.70;;;;;;5049272;28;20029;-81
2021/11/14 08:27:37;;;;;;;8.82;8.43;;;12.80;78.70;;;;;;5049032;28;20033;-81
2021/11/14 08:30:05;;;;;;;8.45;7.95;;;12.80;78.70;;;;;;5051476;28;20037;-80
2021/11/14 08:32:31;;;;;;;9.00;8.50;;;12.80;78.60;;;;;;5049046;28;20036;-81
2021/11/14 08:34:57;;;;;;;8.13;7.72;;;12.70;78.50;;;;;;5048552;28;20470;-81
2021/11/14 08:37:24;;;;;;;9.05;8.55;;;12.80;78.60;;;;;;5048987;28;20040;-81
2021/11/14 08:39:50;;;;;;;8.73;8.32;;;12.70;78.60;;;;;;5048990;28;20056;-81
2021/11/14 08:42:16;;;;;;;8.55;8.15;;;12.70;78.60;;;;;;5050908;28;20033;-81
2021/11/14 08:44:43;;;;;;;8.48;8.07;;;12.70;78.60;;;;;;5030277;28;20041;-81
2021/11/14 08:47:09;;;;;;;8.40;8.00;;;12.70;78.60;;;;;;5050997;28;20048;-80
2021/11/14 08:49:35;;;;;;;9.00;8.60;;;12.80;78.60;;;;;;5053236;28;20041;-81
2021/11/14 08:52:01;;;;;;;8.50;8.10;;;12.80;78.60;;;;;;5052999;28;20427;-81
2021/11/14 08:54:27;;;;;;;8.90;8.50;;;12.80;78.50;;;;;;5054975;28;20029;-81
2021/11/14 08:56:54;;;;;;;8.27;7.88;;;12.80;78.50;;;;;;5035418;28;20041;-81
2021/11/14 08:59:20;;;;;;;8.95;8.40;;;12.80;78.50;;;;;;5053524;28;20048;-81
2021/11/14 09:01:46;;;;;;;8.90;8.50;;;12.80;78.50;;;;;;5052231;28;20040;-81
2021/11/14 09:04:12;;;;;;;8.65;8.25;;;12.80;78.40;;;;;;5052192;28;20043;-81
2021/11/14 09:06:38;;;;;;;8.80;8.40;;;12.80;78.40;;;;;;5053387;28;20029;-81
2021/11/14 09:09:05;;;;;;;8.80;8.40;;;12.80;78.40;;;;;;5054208;28;20052;-81
2021/11/14 09:11:31;;;;;;;9.23;8.82;;;12.90;78.30;;;;;;5052352;28;20124;-81
2021/11/14 09:13:57;;;;;;;9.18;8.77;;;12.90;78.20;;;;;;5053369;28;20044;-80
2021/11/14 09:16:27;;;;;;;9.20;8.80;;;12.90;78.10;;;;;;5052048;28;20029;-81
2021/11/14 09:18:55;;;;;;;9.65;9.25;;;13.00;78.20;;;;;;5036473;28;20041;-81
2021/11/14 09:21:21;;;;;;;9.63;9.23;;;13.00;78.10;;;;;;5053862;28;20033;-81
2021/11/14 09:23:48;;;;;;;9.55;9.15;;;13.00;78.10;;;;;;5050713;28;20462;-81
2021/11/14 09:26:14;;;;;;;9.73;9.32;;;13.00;78.00;;;;;;5050435;28;20037;-81
2021/11/14 09:28:42;;;;;;;10.02;9.55;;;13.10;78.00;;;;;;5053053;28;20029;-81
2021/11/14 09:31:10;;;;;;;10.60;10.10;;;13.10;77.90;;;;;;5051496;28;20036;-81
2021/11/14 09:33:36;;;;;;;11.32;10.73;;;13.10;77.90;;;;;;5051763;28;20025;-81
2021/11/14 09:36:03;;;;;;;9.77;9.38;;;13.10;77.80;;;;;;5053386;28;20053;-81
2021/11/14 09:38:29;;;;;;;10.93;10.43;;;13.20;78.60;;;;;;5051708;28;20035;-81
2021/11/14 09:40:58;;;;;;;10.82;10.32;;;13.20;77.70;;;;;;5052812;28;20359;-81
2021/11/14 09:43:25;;;;;;;11.07;10.57;;;13.20;77.70;;;;;;5052705;28;20100;-81
2021/11/14 09:45:52;;;;;;;10.88;10.38;;;13.20;77.50;;;;;;5034423;28;20401;-81
2021/11/14 09:48:19;;;;;;;10.32;9.82;;;13.20;77.60;;;;;;5052959;28;20021;-81
2021/11/14 09:50:46;;;;;;;10.85;10.35;;;13.30;77.60;;;;;;5051423;28;20398;-81
2021/11/14 09:53:12;;;;;;;10.68;10.18;;;13.30;77.50;;;;;;5052524;28;20025;-81
2021/11/14 09:55:39;;;;;;;11.23;10.73;;;13.30;77.40;;;;;;5051624;28;20052;-81
2021/11/14 09:58:06;;;;;;;9.82;9.43;;;13.40;77.40;;;;;;5051318;28;20040;-80
2021/11/14 10:00:32;;;;;;;10.80;10.30;;;13.40;77.40;;;;;;5052407;28;20394;-81
2021/11/14 10:02:58;;;;;;;10.07;9.57;;;13.40;77.30;;;;;;5052281;28;20036;-81
2021/11/14 10:05:24;;;;;;;11.43;10.82;;;13.40;77.40;;;;;;5050707;28;20028;-81
2021/11/14 10:07:54;;;;;;;10.25;9.75;;;13.50;77.30;;;;;;5051265;28;20385;-81
2021/11/14 10:10:21;;;;;;;9.80;9.40;;;13.50;77.20;;;;;;5051192;28;20037;-81
2021/11/14 10:12:47;;;;;;;9.98;9.48;;;13.50;77.20;;;;;;5051014;28;20024;-81
2021/11/14 10:15:15;;;;;;;9.43;9.02;;;13.50;77.20;;;;;;5052527;28;20036;-80
2021/11/14 10:17:46;;;;;;;9.65;9.25;;;13.50;77.20;;;;;;5051956;28;20021;-81
2021/11/14 10:20:23;;;;;;;9.27;8.88;;;13.50;77.10;;;;;;5048493;28;20037;-81
2021/11/14 10:22:54;;;;;;;10.27;9.57;;;13.60;77.20;;;;;;5039446;28;20025;-81
2021/11/14 10:25:21;;;;;;;10.60;10.00;;;13.60;77.10;;;;;;5036047;28;20052;-81
2021/11/14 10:27:48;;;;;;;10.35;9.85;;;13.60;77.10;;;;;;5050353;28;20025;-81
2021/11/14 10:30:15;;;;;;;10.07;9.57;;;13.60;77.10;;;;;;5051653;28;20520;-81
2021/11/14 10:32:41;;;;;;;9.88;9.40;;;13.60;77.00;;;;;;5050699;28;20037;-81
2021/11/14 10:35:07;;;;;;;10.77;9.93;;;13.60;77.00;;;;;;5050620;28;20048;-81
2021/11/14 10:37:42;;;;;;;10.55;9.98;;;13.60;77.00;;;;;;5050636;28;20033;-81
2021/11/14 10:40:13;;;;;;;10.25;9.75;;;13.70;77.00;;;;;;5051477;28;20044;-81
2021/11/14 10:42:42;;;;;;;9.95;9.48;;;13.80;77.00;;;;;;5052036;28;20032;-81
2021/11/14 10:45:08;;;;;;;10.23;9.73;;;13.90;76.90;;;;;;5050645;28;20033;-81
2021/11/14 10:47:35;;;;;;;11.38;10.57;;;13.90;76.70;;;;;;5050026;28;20032;-81
2021/11/14 10:50:06;;;;;;;11.23;10.73;;;14.00;76.60;;;;;;5050432;28;20060;-81
2021/11/14 10:52:32;;;;;;;11.23;10.73;;;14.00;76.50;;;;;;5050576;28;20017;-81
2021/11/14 10:55:00;;;;;;;10.77;10.27;;;14.00;76.40;;;;;;5050581;28;20036;-81
2021/11/14 10:57:28;;;;;;;10.75;10.25;;;14.10;76.40;;;;;;5051554;28;20028;-81
2021/11/14 10:59:54;;;;;;;11.00;10.50;;;14.10;76.30;;;;;;5049299;28;20063;-80
2021/11/14 11:02:21;;;;;;;12.23;11.52;;;14.20;76.20;;;;;;5049670;28;20496;-81
2021/11/14 11:04:47;;;;;;;11.98;11.38;;;14.20;76.90;;;;;;5050104;28;20029;-81
2021/11/14 11:07:14;;;;;;;11.85;11.25;;;14.20;76.00;;;;;;5050458;28;20036;-81
2021/11/14 11:09:42;;;;;;;11.80;11.30;;;14.30;76.00;;;;;;5050844;28;20045;-81
2021/11/14 11:12:35;;;;;;;12.60;11.85;;;14.30;76.00;;;;;;5051798;28;20091;-81
2021/11/14 11:15:06;;;;;;;12.20;11.60;;;14.40;76.00;;;;;;5048697;28;20401;-81
2021/11/14 11:17:52;;;;;;;12.60;12.00;;;14.40;76.00;;;;;;5027863;28;20029;-81
2021/11/14 11:20:29;;;;;;;12.60;12.00;;;14.40;75.70;;;;;;5048180;28;20044;-81
2021/11/14 11:22:57;;;;;;;12.32;11.73;;;14.50;75.70;;;;;;5050883;28;20032;-81
2021/11/14 11:25:32;;;;;;;13.05;12.27;;;14.50;75.50;;;;;;5050553;28;20041;-81
2021/11/14 11:27:58;;;;;;;12.35;11.75;;;14.60;75.50;;;;;;5034504;28;20033;-81
2021/11/14 11:30:36;;;;;;;12.13;11.52;;;14.60;75.30;;;;;;5050248;28;20414;-81
2021/11/14 11:33:02;;;;;;;12.32;11.73;;;14.60;75.20;;;;;;5052867;28;20028;-81
2021/11/14 11:35:29;;;;;;;12.07;11.48;;;14.70;75.10;;;;;;5049711;28;20044;-81
2021/11/14 11:37:55;;;;;;;11.65;11.15;;;14.70;74.90;;;;;;5049577;28;20033;-81
2021/11/14 11:40:23;;;;;;;12.98;12.27;;;14.70;74.80;;;;;;5049683;28;20048;-80
2021/11/14 11:42:49;;;;;;;11.13;10.63;;;14.70;74.80;;;;;;5048565;28;20021;-81
2021/11/14 11:45:37;;;;;;;11.10;10.60;;;14.70;74.70;;;;;;5033581;28;20025;-81
2021/11/14 11:48:04;;;;;;;18.58;12.40;;;14.70;74.70;;;;;;5067854;28;20033;-81
2021/11/14 11:50:32;;;;;;;12.77;12.18;;;14.70;74.70;;;;;;5030751;28;20058;-81
2021/11/14 11:52:58;;;;;;;11.52;10.95;;;14.70;74.70;;;;;;5043875;28;20024;-81
2021/11/14 11:55:27;;;;;;;12.43;11.82;;;14.80;74.60;;;;;;5049580;28;20051;-81
2021/11/14 11:57:54;;;;;;;11.95;11.40;;;14.80;74.60;;;;;;5048703;28;20025;-81
2021/11/14 12:00:21;;;;;;;11.90;11.30;;;14.80;74.60;;;;;;5030235;28;20036;-81
2021/11/14 12:02:47;;;;;;;12.25;11.65;;;14.90;74.60;;;;;;5047825;28;20104;-81
2021/11/14 12:05:16;;;;;;;11.63;11.02;;;14.90;74.50;;;;;;5049260;28;20029;-81
2021/11/14 12:07:44;;;;;;;12.18;11.57;;;14.80;74.40;;;;;;5049400;28;20032;-81
2021/11/14 12:10:22;;;;;;;11.90;10.90;;;14.80;74.40;;;;;;5049303;28;20367;-81
2021/11/14 12:13:03;;;;;;;11.50;11.00;;;14.80;74.30;;;;;;5048190;28;20030;-81
2021/11/14 12:15:36;;;;;;;;;;;14.70;74.40;;;;;;5015787;28;20040;-81
2021/11/14 12:18:05;;;;;;;13.27;12.68;;;14.70;74.40;;;;;;5048669;28;19912;-81
2021/11/14 12:20:43;;;;;;;10.95;10.45;;;14.80;74.20;;;;;;5050181;28;20025;-81
2021/11/14 12:23:24;;;;;;;11.70;11.20;;;14.70;74.00;;;;;;5033822;28;20500;-81
2021/11/14 12:25:55;;;;;;;12.07;11.38;;;14.70;74.00;;;;;;5046405;28;20017;-81
2021/11/14 12:28:26;;;;;;;11.80;11.20;;;14.80;74.00;;;;;;5037878;28;20037;-81
2021/11/14 12:30:57;;;;;;;11.75;11.25;;;14.80;74.00;;;;;;5035785;28;20494;-81
2021/11/14 12:33:23;;;;;;;;;;;14.80;74.00;;;;;;5052472;28;20036;-81
2021/11/14 12:35:53;;;;;;;11.75;11.15;;;14.80;74.00;;;;;;5053102;28;20284;-81
2021/11/14 12:38:24;;;;;;;11.00;10.50;;;14.70;74.00;;;;;;5054009;28;20021;-80
2021/11/14 12:40:56;;;;;;;;;;;14.70;74.20;;;;;;5052278;28;20393;-80
2021/11/14 12:43:23;;;;;;;12.80;12.20;;;14.60;74.40;;;;;;5053925;28;19916;-79
2021/11/14 12:45:56;;;;;;;14.63;13.93;;;14.60;74.50;;;;;;5054148;28;20390;-80